createdAt,value
2023-02-15T00:04:49.804Z,60.64
2023-02-15T00:09:53.213Z,60.54
2023-02-15T00:14:56.540Z,60.64
2023-02-15T00:19:59.869Z,60.61
2023-02-15T00:25:03.228Z,60.60
2023-02-15T00:30:07.478Z,60.56
2023-02-15T00:35:10.991Z,60.61
2023-02-15T00:40:15.146Z,60.46
2023-02-15T00:45:19.486Z,60.73
2023-02-15T00:50:23.947Z,60.48
2023-02-15T00:55:27.966Z,60.53
2023-02-15T01:00:33.709Z,60.71
2023-02-15T01:05:37.424Z,60.65
2023-02-15T01:10:40.942Z,60.79
2023-02-15T01:15:46.819Z,60.87
2023-02-15T01:20:51.270Z,60.96
2023-02-15T01:25:54.677Z,60.86
2023-02-15T01:30:58.274Z,60.78
2023-02-15T01:36:02.244Z,60.70
2023-02-15T01:41:21.445Z,60.74
2023-02-15T01:46:45.590Z,60.97
2023-02-15T01:51:52.457Z,61.08
2023-02-15T01:57:04.022Z,61.18
2023-02-15T02:02:11.069Z,61.24
2023-02-15T02:07:17.498Z,61.31
2023-02-15T02:12:23.038Z,61.17
2023-02-15T02:17:40.887Z,61.15
2023-02-15T02:23:22.169Z,61.29
2023-02-15T02:28:59.322Z,61.31
2023-02-15T02:34:10.933Z,61.45
2023-02-15T02:39:14.980Z,61.55
2023-02-15T02:44:24.267Z,61.56
2023-02-15T02:49:37.977Z,61.58
2023-02-15T02:54:41.379Z,61.61
2023-02-15T02:59:48.014Z,61.80
2023-02-15T03:04:59.600Z,61.90
2023-02-15T03:10:06.199Z,62.04
2023-02-15T03:15:20.532Z,62.09
2023-02-15T03:20:29.092Z,62.20
2023-02-15T03:25:41.036Z,62.18
2023-02-15T03:30:49.159Z,62.23
2023-02-15T03:36:01.044Z,62.19
2023-02-15T03:41:12.046Z,62.20
2023-02-15T03:46:29.285Z,62.27
2023-02-15T03:51:39.234Z,62.34
2023-02-15T03:57:03.664Z,62.32
2023-02-15T04:02:22.945Z,70.16
2023-02-15T04:07:26.224Z,62.80
2023-02-15T04:12:29.432Z,50.89
2023-02-15T04:17:32.795Z,50.26
2023-02-15T04:22:55.201Z,51.44
2023-02-15T04:27:58.614Z,52.64
2023-02-15T04:33:02.097Z,53.93
2023-02-15T04:38:05.551Z,55.07
2023-02-15T04:43:08.945Z,55.95
2023-02-15T04:48:12.580Z,56.53
2023-02-15T04:53:18.749Z,57.59
2023-02-15T04:58:22.235Z,58.37
2023-02-15T05:03:26.172Z,57.78
2023-02-15T05:08:29.565Z,58.90
2023-02-15T05:13:33.324Z,59.95
2023-02-15T05:18:36.886Z,60.35
2023-02-15T05:23:40.405Z,60.43
2023-02-15T05:28:44.538Z,60.60
2023-02-15T05:33:48.120Z,60.68
2023-02-15T05:38:51.837Z,60.99
2023-02-15T05:43:57.914Z,68.49
2023-02-15T05:49:01.888Z,62.19
2023-02-15T05:54:05.217Z,51.78
2023-02-15T05:59:09.102Z,50.92
2023-02-15T06:04:13.860Z,52.01
2023-02-15T06:09:19.491Z,53.55
2023-02-15T06:14:23.451Z,54.70
2023-02-15T06:19:26.898Z,55.88
2023-02-15T06:24:30.389Z,57.10
2023-02-15T06:29:33.693Z,57.50
2023-02-15T06:34:37.053Z,58.40
2023-02-15T06:39:40.594Z,59.51
2023-02-15T06:44:43.940Z,59.46
2023-02-15T06:49:47.401Z,59.86
2023-02-15T06:54:51.631Z,60.81
2023-02-15T06:59:55.342Z,60.91
2023-02-15T07:04:59.190Z,60.73
2023-02-15T07:10:03.289Z,61.53
2023-02-15T07:15:07.798Z,61.32
2023-02-15T07:20:14.855Z,61.72
2023-02-15T07:25:18.668Z,61.76
2023-02-15T07:30:22.095Z,61.55
2023-02-15T07:35:26.246Z,62.05
2023-02-15T07:40:29.972Z,62.16
2023-02-15T07:45:33.429Z,68.63
2023-02-15T07:50:36.750Z,62.03
2023-02-15T07:55:40.294Z,51.21
2023-02-15T08:00:59.063Z,51.40
2023-02-15T08:06:05.863Z,52.76
2023-02-15T08:11:34.877Z,53.75
2023-02-15T08:16:42.134Z,55.23
2023-02-15T08:21:51.600Z,55.53
2023-02-15T08:26:56.333Z,56.93
2023-02-15T08:32:04.636Z,57.45
2023-02-15T08:37:08.976Z,58.45
2023-02-15T08:42:14.687Z,59.01
2023-02-15T08:47:19.546Z,59.17
2023-02-15T08:52:24.387Z,59.51
2023-02-15T08:57:29.334Z,59.37
2023-02-15T09:02:33.784Z,59.38
2023-02-15T09:07:38.588Z,59.90
2023-02-15T09:12:42.979Z,59.91
2023-02-15T09:17:47.130Z,59.89
2023-02-15T09:22:58.128Z,60.21
2023-02-15T09:28:04.111Z,60.13
2023-02-15T09:33:07.530Z,59.99
2023-02-15T09:38:13.303Z,60.13
2023-02-15T09:43:35.702Z,60.03
2023-02-15T09:48:50.039Z,59.43
2023-02-15T09:54:12.374Z,59.50
2023-02-15T09:59:34.138Z,59.52
2023-02-15T10:05:05.659Z,59.74
2023-02-15T10:10:53.769Z,59.24
2023-02-15T10:16:07.126Z,59.49
2023-02-15T10:21:25.995Z,59.30
2023-02-15T10:26:42.378Z,59.07
2023-02-15T10:31:55.547Z,59.11
2023-02-15T10:37:27.348Z,59.04
2023-02-15T10:42:53.593Z,58.82
2023-02-15T10:48:15.530Z,58.52
2023-02-15T10:53:21.977Z,58.27
2023-02-15T10:58:56.981Z,57.90
2023-02-15T11:04:37.745Z,57.66
2023-02-15T11:09:49.588Z,57.05
2023-02-15T11:15:20.977Z,56.64
2023-02-15T11:20:34.348Z,56.36
2023-02-15T11:25:38.124Z,55.58
2023-02-15T11:30:47.203Z,55.79
2023-02-15T11:35:53.962Z,55.45
2023-02-15T11:41:04.012Z,54.98
2023-02-15T11:46:12.490Z,54.98
2023-02-15T11:51:19.029Z,54.98
2023-02-15T11:56:27.372Z,54.60
2023-02-15T12:01:41.405Z,55.02
2023-02-15T12:07:03.319Z,54.60
2023-02-15T12:12:28.240Z,53.46
2023-02-15T12:17:35.953Z,53.66
2023-02-15T12:22:40.389Z,53.92
2023-02-15T12:27:44.574Z,52.89
2023-02-15T12:33:06.464Z,52.27
2023-02-15T12:38:12.462Z,52.01
2023-02-15T12:43:35.660Z,51.61
2023-02-15T12:48:40.719Z,51.60
2023-02-15T12:53:45.299Z,51.35
2023-02-15T12:58:48.856Z,51.34
2023-02-15T13:04:15.313Z,51.22
2023-02-15T13:09:33.370Z,50.96
2023-02-15T13:14:37.469Z,50.54
2023-02-15T13:19:46.091Z,50.64
2023-02-15T13:25:00.490Z,50.25
2023-02-15T13:30:16.426Z,49.99
2023-02-15T13:35:20.334Z,49.70
2023-02-15T13:40:32.561Z,49.54
2023-02-15T13:46:31.188Z,49.40
2023-02-15T13:51:55.323Z,49.13
2023-02-15T13:57:20.473Z,49.19
2023-02-15T14:02:36.686Z,49.25
2023-02-15T14:07:42.602Z,49.61
2023-02-15T14:13:20.593Z,50.00
2023-02-15T14:18:36.908Z,50.22
2023-02-15T14:23:59.714Z,51.03
2023-02-15T14:29:21.796Z,53.07
2023-02-15T14:34:46.072Z,51.59
2023-02-15T14:40:22.813Z,51.83
2023-02-15T14:45:54.198Z,53.67
2023-02-15T14:50:57.665Z,52.94
2023-02-15T14:56:20.625Z,52.28
2023-02-15T15:01:28.220Z,52.33
2023-02-15T15:06:34.163Z,52.54
2023-02-15T15:11:46.599Z,52.88
2023-02-15T15:16:52.224Z,53.19
2023-02-15T15:21:57.735Z,53.63
2023-02-15T15:27:27.297Z,53.95
2023-02-15T15:32:35.065Z,53.88
2023-02-15T15:37:47.522Z,54.56
2023-02-15T15:42:51.626Z,54.90
2023-02-15T15:48:30.317Z,55.34
2023-02-15T15:53:43.464Z,55.60
2023-02-15T15:58:53.528Z,56.03
2023-02-15T16:03:59.570Z,56.39
2023-02-15T16:09:27.408Z,56.66
2023-02-15T16:14:36.518Z,56.85
2023-02-15T16:19:42.962Z,57.16
2023-02-15T16:25:01.978Z,57.47
2023-02-15T16:30:36.656Z,57.65
2023-02-15T16:43:43.598Z,58.05
2023-02-15T16:48:52.671Z,58.39
2023-02-15T16:54:02.293Z,58.65
2023-02-15T17:00:44.696Z,58.78
2023-02-15T17:05:55.012Z,58.98
2023-02-15T17:11:14.640Z,59.30
2023-02-15T18:07:45.036Z,60.52
2023-02-15T19:12:53.279Z,55.09
2023-02-15T19:17:56.733Z,56.35
2023-02-15T19:23:02.074Z,57.00
2023-02-15T19:28:37.943Z,57.96
2023-02-15T19:33:46.293Z,58.27
2023-02-15T20:52:59.263Z,61.24
2023-02-15T21:04:48.068Z,61.86
2023-02-15T21:10:02.775Z,70.45
2023-02-15T21:16:29.260Z,63.27
2023-02-15T21:22:22.072Z,51.17
2023-02-15T21:28:30.796Z,51.32
2023-02-15T21:34:22.138Z,52.80
2023-02-15T21:40:06.400Z,53.70
2023-02-15T21:45:56.465Z,54.89
2023-02-15T21:52:09.574Z,56.02
2023-02-15T21:58:10.111Z,57.72
2023-02-15T22:10:02.352Z,60.55
2023-02-15T22:16:17.778Z,61.11
2023-02-15T22:28:52.778Z,62.51
2023-02-15T22:35:25.663Z,50.97
2023-02-15T22:41:38.722Z,51.48
2023-02-15T22:46:56.770Z,52.80
2023-02-15T22:53:28.814Z,54.18
2023-02-15T22:59:14.738Z,55.27
2023-02-15T23:05:13.538Z,56.77
2023-02-15T23:10:46.770Z,58.06
2023-02-15T23:16:54.282Z,58.93
2023-02-15T23:23:13.061Z,59.71
2023-02-15T23:29:03.750Z,60.64
2023-02-15T23:35:11.741Z,61.00
2023-02-15T23:41:24.495Z,61.40
2023-02-15T23:47:17.871Z,71.09
2023-02-15T23:53:39.898Z,62.48
2023-02-15T23:59:23.350Z,50.51
